createdAt,value
2023-01-19T00:01:44.208Z,96956.07
2023-01-19T00:04:12.158Z,96954.28
2023-01-19T00:06:40.251Z,96957.16
2023-01-19T00:09:08.180Z,96958.80
2023-01-19T00:11:36.182Z,96963.59
2023-01-19T00:14:04.820Z,96969.92
2023-01-19T00:16:32.939Z,96967.72
2023-01-19T00:19:01.004Z,96967.45
2023-01-19T00:21:29.048Z,96970.45
2023-01-19T00:23:56.973Z,96971.88
2023-01-19T00:26:25.025Z,96969.08
2023-01-19T00:28:53.162Z,96971.18
2023-01-19T00:31:21.905Z,96975.22
2023-01-19T00:33:51.663Z,96975.73
2023-01-19T00:36:20.437Z,96978.90
2023-01-19T00:38:48.480Z,96979.16
2023-01-19T00:41:17.636Z,96984.21
2023-01-19T00:43:45.511Z,96980.36
2023-01-19T00:46:13.498Z,96980.17
2023-01-19T00:48:41.610Z,96977.95
2023-01-19T00:51:09.603Z,96972.86
2023-01-19T00:53:37.550Z,96969.52
2023-01-19T00:56:06.138Z,96959.52
2023-01-19T00:58:34.246Z,96965.00
2023-01-19T01:01:04.870Z,96960.50
2023-01-19T01:03:33.198Z,96963.27
2023-01-19T01:06:01.330Z,96960.98
2023-01-19T01:08:30.605Z,96958.84
2023-01-19T01:10:58.823Z,96958.27
2023-01-19T01:13:28.322Z,96956.71
2023-01-19T01:15:57.522Z,96954.29
2023-01-19T01:18:26.450Z,96946.31
2023-01-19T01:21:04.691Z,96955.21
2023-01-19T01:23:34.179Z,96957.77
2023-01-19T01:26:02.304Z,96953.10
2023-01-19T01:28:32.372Z,96952.34
2023-01-19T01:31:00.385Z,96948.97
2023-01-19T01:33:40.865Z,96953.92
2023-01-19T01:36:12.092Z,96964.89
2023-01-19T01:38:41.349Z,96971.49
2023-01-19T01:41:09.753Z,96974.88
2023-01-19T01:43:51.632Z,96977.21
2023-01-19T01:46:20.173Z,96976.09
2023-01-19T01:48:57.383Z,96977.98
2023-01-19T01:51:40.409Z,96979.88
2023-01-19T01:54:26.079Z,96974.47
2023-01-19T01:57:03.213Z,96968.33
2023-01-19T01:59:39.489Z,96965.66
2023-01-19T02:02:53.738Z,96972.66
2023-01-19T02:05:28.436Z,96978.92
2023-01-19T02:08:24.080Z,96981.30
2023-01-19T02:11:10.992Z,96982.51
2023-01-19T02:13:43.942Z,96981.75
2023-01-19T02:16:13.190Z,96980.51
2023-01-19T02:18:41.526Z,96981.14
2023-01-19T02:21:24.569Z,96984.65
2023-01-19T02:23:53.857Z,96990.69
2023-01-19T02:26:25.439Z,96990.66
2023-01-19T02:28:58.058Z,96992.57
2023-01-19T02:31:31.494Z,96988.92
2023-01-19T02:34:01.925Z,96988.86
2023-01-19T02:36:44.887Z,96994.92
2023-01-19T02:39:15.779Z,96995.83
2023-01-19T02:41:49.194Z,96996.16
2023-01-19T02:44:21.073Z,96997.05
2023-01-19T02:46:49.477Z,96996.22
2023-01-19T02:49:17.494Z,96987.75
2023-01-19T02:51:45.492Z,96986.57
2023-01-19T02:54:27.855Z,96995.84
2023-01-19T02:57:27.812Z,97004.55
2023-01-19T03:00:26.240Z,97002.88
2023-01-19T03:03:27.251Z,97004.91
2023-01-19T03:06:08.742Z,97002.04
2023-01-19T03:08:42.344Z,97003.99
2023-01-19T03:11:14.814Z,97005.33
2023-01-19T03:13:53.151Z,97004.66
2023-01-19T03:16:34.901Z,97007.52
2023-01-19T03:19:13.134Z,97007.39
2023-01-19T03:21:47.486Z,97004.38
2023-01-19T03:24:18.576Z,97004.12
2023-01-19T03:26:57.870Z,97003.30
2023-01-19T03:29:30.308Z,96995.27
2023-01-19T03:32:03.293Z,96993.54
2023-01-19T03:34:32.030Z,96998.00
2023-01-19T03:37:03.251Z,96994.95
2023-01-19T03:39:32.143Z,96994.02
2023-01-19T03:42:05.788Z,97000.38
2023-01-19T03:44:38.489Z,97000.09
2023-01-19T03:47:10.059Z,97004.45
2023-01-19T03:49:41.162Z,97013.06
2023-01-19T03:52:09.379Z,97014.77
2023-01-19T03:54:37.516Z,97016.77
2023-01-19T03:57:05.572Z,97016.38
2023-01-19T03:59:36.470Z,97012.59
2023-01-19T04:02:04.414Z,97015.02
2023-01-19T04:04:32.399Z,97018.56
2023-01-19T04:07:01.529Z,97015.27
2023-01-19T04:09:29.655Z,97025.36
2023-01-19T04:11:57.627Z,97030.83
2023-01-19T04:14:25.527Z,97030.40
2023-01-19T04:16:53.672Z,97029.48
2023-01-19T04:19:21.675Z,97026.27
2023-01-19T04:21:50.888Z,97030.86
2023-01-19T04:24:18.778Z,97030.66
2023-01-19T04:26:46.676Z,97036.79
2023-01-19T04:29:14.551Z,97045.69
2023-01-19T04:31:43.275Z,97050.99
2023-01-19T04:34:11.219Z,97054.43
2023-01-19T04:36:39.057Z,97052.22
2023-01-19T04:39:09.028Z,97052.40
2023-01-19T04:41:37.117Z,97058.40
2023-01-19T04:44:06.091Z,97059.00
2023-01-19T04:46:34.150Z,97067.04
2023-01-19T04:49:02.081Z,97062.70
2023-01-19T04:51:30.053Z,97057.59
2023-01-19T04:53:58.176Z,97059.63
2023-01-19T04:56:28.349Z,97065.43
2023-01-19T04:58:56.579Z,97071.44
2023-01-19T05:01:24.936Z,97073.98
2023-01-19T05:03:53.047Z,97078.58
2023-01-19T05:06:20.966Z,97081.48
2023-01-19T05:08:48.895Z,97089.16
2023-01-19T05:11:36.997Z,97090.66
2023-01-19T05:14:04.905Z,97090.75
2023-01-19T05:16:34.819Z,97090.54
2023-01-19T05:19:02.840Z,97094.73
2023-01-19T05:21:31.009Z,97098.02
2023-01-19T05:23:59.191Z,97097.46
2023-01-19T05:26:27.115Z,97094.16
2023-01-19T05:28:55.119Z,97089.35
2023-01-19T05:31:23.678Z,97089.74
2023-01-19T05:33:51.534Z,97083.95
2023-01-19T05:36:19.561Z,97081.32
2023-01-19T05:38:47.469Z,97078.29
2023-01-19T05:41:15.551Z,97079.26
2023-01-19T05:43:44.530Z,97076.83
2023-01-19T05:46:12.460Z,97076.55
2023-01-19T05:48:40.445Z,97068.13
2023-01-19T05:51:08.582Z,97063.81
2023-01-19T05:53:36.580Z,97064.14
2023-01-19T05:56:08.560Z,97066.87
2023-01-19T05:58:39.480Z,97069.59
2023-01-19T06:01:09.946Z,97070.45
2023-01-19T06:03:39.801Z,97068.52
2023-01-19T06:06:07.977Z,97076.06
2023-01-19T06:08:36.535Z,97070.23
2023-01-19T06:11:05.929Z,97067.71
2023-01-19T06:13:34.556Z,97065.82
2023-01-19T06:16:03.618Z,97059.64
2023-01-19T06:18:31.711Z,97065.85
2023-01-19T06:21:02.524Z,97074.72
2023-01-19T06:23:34.326Z,97081.08
2023-01-19T06:26:03.271Z,97082.14
2023-01-19T06:28:31.681Z,97085.40
2023-01-19T06:30:59.615Z,97097.96
2023-01-19T06:33:28.554Z,97103.46
2023-01-19T06:35:56.607Z,97109.83
2023-01-19T06:38:24.474Z,97115.65
2023-01-19T06:40:54.951Z,97117.48
2023-01-19T06:43:23.200Z,97114.63
2023-01-19T06:45:51.837Z,97115.35
2023-01-19T06:48:19.947Z,97122.58
2023-01-19T06:50:49.190Z,97131.09
2023-01-19T06:53:20.031Z,97139.80
2023-01-19T06:55:48.197Z,97149.93
2023-01-19T06:58:16.039Z,97161.88
2023-01-19T07:00:44.028Z,97167.67
2023-01-19T07:03:20.526Z,97175.85
2023-01-19T07:05:52.758Z,97178.80
2023-01-19T07:08:21.127Z,97187.66
2023-01-19T07:11:25.651Z,97191.90
2023-01-19T07:13:39.188Z,97196.48
2023-01-19T07:16:10.419Z,97196.92
2023-01-19T07:18:40.782Z,97197.80
2023-01-19T07:21:09.224Z,97200.50
2023-01-19T07:23:38.205Z,97202.78
2023-01-19T07:26:06.385Z,97200.95
2023-01-19T07:28:34.341Z,97203.05
2023-01-19T07:31:02.498Z,97201.63
2023-01-19T07:33:30.567Z,97213.09
2023-01-19T07:35:58.574Z,97219.80
2023-01-19T07:38:26.529Z,97219.66
2023-01-19T07:41:05.653Z,97222.86
2023-01-19T07:43:34.289Z,97224.33
2023-01-19T07:46:08.393Z,97214.49
2023-01-19T07:48:36.631Z,97215.30
2023-01-19T07:51:06.388Z,97215.04
2023-01-19T07:53:34.815Z,97212.70
2023-01-19T07:56:02.895Z,97206.98
2023-01-19T07:58:30.751Z,97203.59
2023-01-19T08:00:58.815Z,97210.59
2023-01-19T08:03:26.770Z,97215.05
2023-01-19T08:05:54.870Z,97216.00
2023-01-19T08:08:23.234Z,97214.59
2023-01-19T08:10:52.350Z,97229.08
2023-01-19T08:13:20.187Z,97233.13
2023-01-19T08:15:52.591Z,97231.38
2023-01-19T08:18:21.252Z,97235.68
2023-01-19T08:20:49.233Z,97250.52
2023-01-19T08:23:18.370Z,97249.76
2023-01-19T08:25:46.638Z,97246.98
2023-01-19T08:28:17.295Z,97248.95
2023-01-19T08:30:45.784Z,97248.98
2023-01-19T08:33:13.994Z,97251.59
2023-01-19T08:35:43.809Z,97243.87
2023-01-19T08:38:11.911Z,97235.89
2023-01-19T08:40:42.093Z,97238.45
2023-01-19T08:43:12.893Z,97239.90
2023-01-19T08:45:48.244Z,97234.80
2023-01-19T08:48:18.767Z,97234.39
2023-01-19T08:50:47.843Z,97240.98
2023-01-19T08:53:16.744Z,97248.03
2023-01-19T08:55:44.704Z,97243.13
2023-01-19T08:58:12.756Z,97232.01
2023-01-19T09:00:41.234Z,97237.65
2023-01-19T09:03:12.391Z,97257.13
2023-01-19T09:05:40.968Z,97257.89
2023-01-19T09:08:11.706Z,97264.14
2023-01-19T09:10:44.806Z,97264.91
2023-01-19T09:13:13.745Z,97276.34
2023-01-19T09:15:43.416Z,97285.50
2023-01-19T09:18:14.607Z,97281.86
2023-01-19T09:20:44.246Z,97277.66
2023-01-19T09:23:15.444Z,97287.65
2023-01-19T09:25:45.234Z,97288.42
2023-01-19T09:28:14.711Z,97285.65
2023-01-19T09:30:44.450Z,97290.38
2023-01-19T09:33:14.804Z,97301.38
2023-01-19T09:35:45.230Z,97301.52
2023-01-19T09:38:15.361Z,97291.23
2023-01-19T09:40:52.285Z,97291.99
2023-01-19T09:43:45.796Z,97278.88
2023-01-19T09:46:23.063Z,97276.85
2023-01-19T09:48:58.636Z,97279.29
2023-01-19T09:51:29.684Z,97275.94
2023-01-19T09:54:05.144Z,97274.84
2023-01-19T09:56:33.925Z,97275.98
2023-01-19T09:59:15.335Z,97281.07
2023-01-19T10:02:14.365Z,97271.20
2023-01-19T10:04:49.316Z,97260.73
2023-01-19T10:07:38.942Z,97254.63
2023-01-19T10:10:23.193Z,97252.52
2023-01-19T10:13:17.264Z,97255.88
2023-01-19T10:16:36.979Z,97253.30
2023-01-19T10:19:29.291Z,97253.89
2023-01-19T10:22:01.289Z,97254.59
2023-01-19T10:24:50.547Z,97236.88
2023-01-19T10:27:24.099Z,97245.40
2023-01-19T10:29:52.360Z,97240.39
2023-01-19T10:32:36.036Z,97242.03
2023-01-19T10:35:21.309Z,97237.79
2023-01-19T10:37:50.078Z,97234.13
2023-01-19T10:40:30.942Z,97236.84
2023-01-19T10:43:00.190Z,97234.07
2023-01-19T10:45:31.075Z,97238.30
2023-01-19T10:48:06.789Z,97244.33
2023-01-19T10:50:39.936Z,97241.33
2023-01-19T10:53:21.167Z,97238.13
2023-01-19T10:56:14.747Z,97238.69
2023-01-19T10:58:42.923Z,97242.38
2023-01-19T11:01:23.210Z,97238.10
2023-01-19T11:03:53.457Z,97227.86
2023-01-19T11:09:21.177Z,97232.28
2023-01-19T11:11:53.577Z,97232.73
2023-01-19T11:14:26.555Z,97228.88
2023-01-19T11:16:57.437Z,97230.09
2023-01-19T11:19:32.127Z,97225.16
2023-01-19T11:22:21.734Z,97220.30
2023-01-19T11:24:50.013Z,97215.04
2023-01-19T11:27:21.030Z,97211.37
2023-01-19T11:29:54.221Z,97210.11
2023-01-19T11:32:23.512Z,97207.06
2023-01-19T11:34:51.472Z,97206.46
2023-01-19T11:37:19.432Z,97210.01
2023-01-19T11:39:50.428Z,97217.77
2023-01-19T11:42:19.814Z,97220.52
2023-01-19T11:45:02.248Z,97220.51
2023-01-19T11:47:49.741Z,97212.18
2023-01-19T11:50:31.947Z,97213.42
2023-01-19T11:53:18.949Z,97217.45
2023-01-19T11:56:03.178Z,97221.23
2023-01-19T11:58:37.215Z,97219.30
2023-01-19T12:01:14.506Z,97220.69
2023-01-19T12:04:00.652Z,97218.19
2023-01-19T12:06:31.599Z,97214.58
2023-01-19T12:09:05.636Z,97213.77
2023-01-19T12:11:58.498Z,97214.31
2023-01-19T12:14:35.189Z,97219.73
2023-01-19T12:17:07.254Z,97220.16
2023-01-19T12:19:46.513Z,97226.66
2023-01-19T12:22:17.713Z,97223.03
2023-01-19T12:25:15.948Z,97224.83
2023-01-19T12:27:46.332Z,97222.42
2023-01-19T12:30:29.815Z,97221.77
2023-01-19T12:33:20.408Z,97217.77
2023-01-19T12:36:01.092Z,97218.36
2023-01-19T12:38:35.474Z,97223.40
2023-01-19T12:41:17.538Z,97224.41
2023-01-19T12:43:46.980Z,97222.36
2023-01-19T12:46:28.147Z,97222.34
2023-01-19T12:49:06.952Z,97224.40
2023-01-19T12:51:35.057Z,97220.73
2023-01-19T12:54:08.758Z,97220.04
2023-01-19T12:56:38.705Z,97227.37
2023-01-19T12:59:06.868Z,97222.09
2023-01-19T13:01:34.776Z,97224.52
2023-01-19T13:04:27.486Z,97222.41
2023-01-19T13:06:55.514Z,97229.35
2023-01-19T13:09:30.614Z,97229.80
2023-01-19T13:12:11.706Z,97231.70
2023-01-19T13:14:44.494Z,97231.39
2023-01-19T13:17:33.596Z,97230.50
2023-01-19T13:20:22.979Z,97234.31
2023-01-19T13:23:19.340Z,97230.30
2023-01-19T13:26:04.515Z,97239.05
2023-01-19T13:28:43.347Z,97245.48
2023-01-19T13:31:12.769Z,97249.54
2023-01-19T13:34:20.699Z,97251.81
2023-01-19T13:36:54.693Z,97257.04
2023-01-19T13:39:31.854Z,97263.06
2023-01-19T13:42:04.698Z,97270.97
2023-01-19T13:44:42.160Z,97271.42
2023-01-19T13:47:19.509Z,97269.91
2023-01-19T13:49:55.815Z,97268.41
2023-01-19T13:52:29.315Z,97269.55
2023-01-19T13:55:03.796Z,97266.80
2023-01-19T13:57:45.300Z,97273.30
2023-01-19T14:00:16.144Z,97276.08
2023-01-19T14:03:23.029Z,97279.53
2023-01-19T14:05:53.305Z,97279.05
2023-01-19T14:08:21.906Z,97284.23
2023-01-19T14:11:02.544Z,97289.19
2023-01-19T14:13:34.077Z,97290.04
2023-01-19T14:16:08.735Z,97292.42
2023-01-19T14:18:36.759Z,97293.66
2023-01-19T14:21:06.145Z,97294.12
2023-01-19T14:23:56.261Z,97296.27
2023-01-19T14:26:48.798Z,97294.46
2023-01-19T14:29:32.721Z,97296.14
2023-01-19T14:32:00.980Z,97299.39
2023-01-19T14:34:35.905Z,97298.02
2023-01-19T14:37:14.123Z,97299.12
2023-01-19T14:39:46.487Z,97297.59
2023-01-19T14:42:27.240Z,97301.02
2023-01-19T14:44:57.155Z,97304.52
2023-01-19T14:47:38.937Z,97303.59
2023-01-19T14:50:24.566Z,97307.67
2023-01-19T14:53:00.800Z,97312.04
2023-01-19T14:55:51.053Z,97306.46
2023-01-19T14:58:20.828Z,97303.69
2023-01-19T15:00:50.140Z,97302.42
2023-01-19T15:03:18.455Z,97307.14
2023-01-19T15:05:47.818Z,97311.73
2023-01-19T15:08:20.128Z,97316.22
2023-01-19T15:10:48.088Z,97312.86
2023-01-19T15:13:20.605Z,97313.37
2023-01-19T15:15:50.064Z,97312.98
2023-01-19T15:18:23.507Z,97312.85
2023-01-19T15:20:51.723Z,97316.46
2023-01-19T15:23:19.739Z,97314.45
2023-01-19T15:25:48.636Z,97313.95
2023-01-19T15:28:20.335Z,97313.95
2023-01-19T15:30:48.354Z,97310.17
2023-01-19T15:33:21.955Z,97316.77
2023-01-19T15:35:50.252Z,97314.48
2023-01-19T15:38:18.539Z,97316.93
2023-01-19T15:40:51.639Z,97323.05
2023-01-19T15:43:21.183Z,97324.02
2023-01-19T15:46:01.819Z,97323.64
2023-01-19T15:48:29.881Z,97322.80
2023-01-19T15:50:58.100Z,97325.66
2023-01-19T15:53:27.411Z,97324.83
2023-01-19T15:55:56.924Z,97315.30
2023-01-19T15:58:25.132Z,97324.38
2023-01-19T16:00:58.739Z,97319.35
2023-01-19T16:03:26.852Z,97327.64
2023-01-19T16:05:54.880Z,97325.70
2023-01-19T16:08:22.970Z,97330.02
2023-01-19T16:10:52.134Z,97333.93
2023-01-19T16:13:20.063Z,97337.69
2023-01-19T16:15:48.465Z,97340.16
2023-01-19T16:18:16.429Z,97341.67
2023-01-19T16:20:44.475Z,97344.19
2023-01-19T16:23:15.885Z,97347.25
2023-01-19T16:25:44.468Z,97353.74
2023-01-19T16:28:12.570Z,97353.17
2023-01-19T16:30:40.701Z,97350.28
2023-01-19T16:33:09.075Z,97354.24
2023-01-19T16:35:36.988Z,97355.66
2023-01-19T16:38:04.856Z,97357.34
2023-01-19T16:40:32.929Z,97361.07
2023-01-19T16:43:01.144Z,97364.21
2023-01-19T16:45:29.233Z,97367.92
2023-01-19T16:47:57.145Z,97368.73
2023-01-19T16:50:25.043Z,97368.18
2023-01-19T16:52:57.617Z,97362.75
2023-01-19T16:55:25.574Z,97365.34
2023-01-19T16:57:55.239Z,97367.79
2023-01-19T17:00:23.478Z,97371.33
2023-01-19T17:02:51.501Z,97368.02
2023-01-19T17:05:19.521Z,97369.20
2023-01-19T17:07:47.483Z,97368.33
2023-01-19T17:10:15.963Z,97370.17
2023-01-19T17:12:43.812Z,97370.59
2023-01-19T17:15:11.793Z,97372.85
2023-01-19T17:17:39.891Z,97368.83
2023-01-19T17:20:08.525Z,97365.63
2023-01-19T17:22:36.521Z,97368.27
2023-01-19T17:25:05.236Z,97372.73
2023-01-19T17:27:33.287Z,97375.65
2023-01-19T17:30:01.227Z,97374.67
2023-01-19T17:32:29.854Z,97371.77
2023-01-19T17:34:58.002Z,97375.17
2023-01-19T17:37:26.110Z,97378.96
2023-01-19T17:39:55.152Z,97377.86
2023-01-19T17:42:24.390Z,97376.27
2023-01-19T17:44:52.412Z,97377.16
2023-01-19T17:47:25.865Z,97379.41
2023-01-19T17:49:54.287Z,97376.36
2023-01-19T17:52:22.469Z,97380.09
2023-01-19T17:54:50.543Z,97382.77
2023-01-19T17:57:18.495Z,97386.75
2023-01-19T17:59:47.885Z,97383.44
2023-01-19T18:02:16.061Z,97387.29
2023-01-19T18:04:45.184Z,97387.97
2023-01-19T18:07:13.101Z,97386.66
2023-01-19T18:09:41.164Z,97390.39
2023-01-19T18:12:09.173Z,97391.02
2023-01-19T18:14:38.151Z,97392.61
2023-01-19T18:17:06.225Z,97391.55
2023-01-19T18:19:35.214Z,97395.23
2023-01-19T18:22:03.233Z,97396.73
2023-01-19T18:24:31.450Z,97399.27
2023-01-19T18:26:59.495Z,97402.86
2023-01-19T18:29:27.860Z,97402.67
2023-01-19T18:31:55.845Z,97407.67
2023-01-19T18:34:23.809Z,97403.06
2023-01-19T18:36:51.710Z,97403.16
2023-01-19T18:39:20.025Z,97400.49
2023-01-19T18:41:49.170Z,97402.73
2023-01-19T18:44:18.375Z,97405.63
2023-01-19T18:46:46.387Z,97407.59
2023-01-19T18:49:14.407Z,97408.21
2023-01-19T18:51:42.493Z,97413.00
2023-01-19T18:54:11.959Z,97415.03
2023-01-19T18:56:39.853Z,97415.96
2023-01-19T18:59:07.752Z,97419.58
2023-01-19T19:01:36.584Z,97421.13
2023-01-19T19:04:04.922Z,97425.23
2023-01-19T19:06:32.986Z,97426.81
2023-01-19T19:09:01.218Z,97430.03
2023-01-19T19:11:29.209Z,97434.16
2023-01-19T19:14:00.360Z,97437.45
2023-01-19T19:16:30.326Z,97441.77
2023-01-19T19:18:59.682Z,97448.17
2023-01-19T19:21:27.803Z,97451.38
2023-01-19T19:23:57.751Z,97457.92
2023-01-19T19:26:28.326Z,97456.27
2023-01-19T19:28:56.990Z,97458.08
2023-01-19T19:31:27.733Z,97458.55
2023-01-19T19:33:57.850Z,97467.59
2023-01-19T19:36:27.950Z,97470.86
2023-01-19T19:38:56.113Z,97478.56
2023-01-19T19:41:29.510Z,97483.22
2023-01-19T19:43:57.604Z,97484.60
2023-01-19T19:46:27.891Z,97493.04
2023-01-19T19:48:56.244Z,97498.52
2023-01-19T19:51:27.174Z,97496.77
2023-01-19T19:53:59.050Z,97502.85
2023-01-19T19:56:30.635Z,97498.23
2023-01-19T19:58:59.708Z,97495.73
2023-01-19T20:01:32.830Z,97499.00
2023-01-19T20:04:10.921Z,97496.89
2023-01-19T20:06:41.450Z,97499.25
2023-01-19T20:09:12.739Z,97509.92
2023-01-19T20:11:41.521Z,97518.55
2023-01-19T20:14:11.633Z,97516.10
2023-01-19T20:16:40.929Z,97518.12
2023-01-19T20:19:08.904Z,97515.48
2023-01-19T20:21:40.158Z,97521.73
2023-01-19T20:24:13.308Z,97527.99
2023-01-19T20:26:44.198Z,97526.95
2023-01-19T20:29:12.462Z,97531.44
2023-01-19T20:31:45.005Z,97533.66
2023-01-19T20:34:15.631Z,97540.38
2023-01-19T20:36:49.892Z,97544.48
2023-01-19T20:39:18.705Z,97547.50
2023-01-19T20:41:49.007Z,97546.91
2023-01-19T20:44:25.266Z,97546.54
2023-01-19T20:46:55.223Z,97539.79
2023-01-19T20:49:23.925Z,97553.27
2023-01-19T20:51:52.365Z,97558.66
2023-01-19T20:54:22.456Z,97568.19
2023-01-19T20:56:50.551Z,97571.61
2023-01-19T20:59:18.609Z,97578.49
2023-01-19T21:01:46.895Z,97576.58
2023-01-19T21:04:16.013Z,97579.35
2023-01-19T21:06:44.343Z,97581.70
2023-01-19T21:09:12.620Z,97585.23
2023-01-19T21:11:40.800Z,97582.70
2023-01-19T21:14:09.311Z,97578.80
2023-01-19T21:16:37.957Z,97573.90
2023-01-19T21:19:06.703Z,97573.49
2023-01-19T21:21:35.068Z,97575.05
2023-01-19T21:24:04.326Z,97577.63
2023-01-19T21:26:33.713Z,97577.20
2023-01-19T21:29:03.030Z,97580.77
2023-01-19T21:31:31.809Z,97584.10
2023-01-19T21:33:59.933Z,97586.72
2023-01-19T21:36:28.091Z,97589.63
2023-01-19T21:39:00.921Z,97589.74
2023-01-19T21:41:30.681Z,97594.20
2023-01-19T21:44:00.969Z,97596.75
2023-01-19T21:46:30.584Z,97599.34
2023-01-19T21:49:07.414Z,97601.05
2023-01-19T21:51:36.981Z,97601.98
2023-01-19T21:54:06.803Z,97608.27
2023-01-19T21:56:38.009Z,97614.13
2023-01-19T21:59:07.665Z,97616.77
2023-01-19T22:01:56.645Z,97619.58
2023-01-19T22:04:24.660Z,97623.07
2023-01-19T22:06:52.806Z,97627.02
2023-01-19T22:09:20.860Z,97627.83
2023-01-19T22:11:48.858Z,97630.96
2023-01-19T22:14:16.861Z,97627.88
2023-01-19T22:16:45.024Z,97628.05
2023-01-19T22:19:14.475Z,97630.44
2023-01-19T22:21:42.841Z,97628.02
2023-01-19T22:24:10.976Z,97633.31
2023-01-19T22:26:39.550Z,97633.03
2023-01-19T22:29:11.347Z,97638.04
2023-01-19T22:31:40.311Z,97637.63
2023-01-19T22:34:10.360Z,97639.27
2023-01-19T22:36:38.519Z,97639.73
2023-01-19T22:39:09.576Z,97643.15
2023-01-19T22:41:57.693Z,97641.90
2023-01-19T22:44:25.928Z,97637.05
2023-01-19T22:46:55.984Z,97639.71
2023-01-19T22:49:24.180Z,97641.26
2023-01-19T22:51:57.945Z,97644.75
2023-01-19T22:54:26.192Z,97642.08
2023-01-19T22:56:54.212Z,97645.59
2023-01-19T22:59:22.480Z,97650.05
2023-01-19T23:02:12.390Z,97649.52
2023-01-19T23:04:40.498Z,97654.31
2023-01-19T23:07:09.488Z,97658.33
2023-01-19T23:09:38.241Z,97659.65
2023-01-19T23:12:06.321Z,97657.39
2023-01-19T23:14:34.828Z,97655.24
2023-01-19T23:17:02.863Z,97658.48
2023-01-19T23:19:31.010Z,97656.42
2023-01-19T23:21:58.978Z,97656.82
2023-01-19T23:24:27.833Z,97653.73
2023-01-19T23:26:56.306Z,97651.73
2023-01-19T23:29:24.481Z,97657.54
2023-01-19T23:31:53.703Z,97662.39
2023-01-19T23:34:22.299Z,97666.00
2023-01-19T23:36:50.489Z,97667.23
2023-01-19T23:39:22.658Z,97673.82
2023-01-19T23:41:51.088Z,97677.65
2023-01-19T23:45:19.316Z,97686.45
2023-01-19T23:47:47.995Z,97686.71
2023-01-19T23:50:16.240Z,97693.05
2023-01-19T23:52:44.793Z,97693.19
2023-01-19T23:55:14.353Z,97696.40
2023-01-19T23:57:42.874Z,97701.53
